createdAt,value
2018-01-03T00:02:27.719Z,3.20
2018-01-03T00:04:57.158Z,3.20
2018-01-03T00:07:27.032Z,3.20
2018-01-03T00:09:56.739Z,3.20
2018-01-03T00:12:26.584Z,3.20
2018-01-03T00:14:56.308Z,3.20
2018-01-03T00:17:26.047Z,3.10
2018-01-03T00:19:55.556Z,3.10
2018-01-03T00:22:26.034Z,3.00
2018-01-03T00:24:55.548Z,3.00
2018-01-03T00:27:26.043Z,3.00
2018-01-03T00:29:55.637Z,3.00
2018-01-03T00:32:25.373Z,2.90
2018-01-03T00:34:55.138Z,2.90
2018-01-03T00:37:25.628Z,2.90
2018-01-03T00:39:55.395Z,2.90
2018-01-03T00:42:25.153Z,2.90
2018-01-03T00:44:54.881Z,3.00
2018-01-03T00:47:24.622Z,3.00
2018-01-03T00:49:54.352Z,2.90
2018-01-03T00:52:24.108Z,2.90
2018-01-03T00:54:53.855Z,2.90
2018-01-03T00:57:24.321Z,2.90
2018-01-03T00:59:54.121Z,2.90
2018-01-03T01:02:23.821Z,2.90
2018-01-03T01:04:53.592Z,2.90
2018-01-03T01:07:23.313Z,2.90
2018-01-03T01:09:54.188Z,2.90
2018-01-03T01:12:23.913Z,2.90
2018-01-03T01:14:53.666Z,2.90
2018-01-03T01:17:23.409Z,2.80
2018-01-03T01:19:53.138Z,2.90
2018-01-03T01:22:23.726Z,2.80
2018-01-03T01:24:53.437Z,2.80
2018-01-03T01:27:24.007Z,2.80
2018-01-03T01:29:53.727Z,2.80
2018-01-03T01:32:23.460Z,2.80
2018-01-03T01:34:53.185Z,2.80
2018-01-03T01:37:22.963Z,2.80
2018-01-03T01:39:52.391Z,2.70
2018-01-03T01:42:22.361Z,2.70
2018-01-03T01:44:52.082Z,2.80
2018-01-03T01:47:21.840Z,2.70
2018-01-03T01:49:51.299Z,2.70
2018-01-03T01:52:21.025Z,2.70
2018-01-03T01:54:50.775Z,2.70
2018-01-03T01:57:20.501Z,2.70
2018-01-03T01:59:51.536Z,2.70
2018-01-03T02:02:21.294Z,2.70
2018-01-03T02:04:51.271Z,2.70
2018-01-03T02:07:21.880Z,2.80
2018-01-03T02:09:51.736Z,2.80
2018-01-03T02:12:22.336Z,2.90
2018-01-03T02:14:52.108Z,2.90
2018-01-03T02:17:21.861Z,2.90
2018-01-03T02:19:51.681Z,2.90
2018-01-03T02:22:21.450Z,3.00
2018-01-03T02:24:51.362Z,3.10
2018-01-03T02:27:20.831Z,3.10
2018-01-03T02:29:50.776Z,3.20
2018-01-03T02:32:20.517Z,3.30
2018-01-03T02:34:50.257Z,3.30
2018-01-03T02:37:20.725Z,3.30
2018-01-03T02:39:50.468Z,3.30
2018-01-03T02:42:20.837Z,3.30
2018-01-03T02:44:50.559Z,3.30
2018-01-03T02:47:20.328Z,3.30
2018-01-03T02:49:50.050Z,3.30
2018-01-03T02:52:19.817Z,3.30
2018-01-03T02:54:49.557Z,3.30
2018-01-03T02:57:19.249Z,3.30
2018-01-03T02:59:49.076Z,3.30
2018-01-03T03:02:18.808Z,3.30
2018-01-03T03:04:49.349Z,3.30
2018-01-03T03:07:19.840Z,3.30
2018-01-03T03:09:50.018Z,3.30
2018-01-03T03:12:19.730Z,3.40
2018-01-03T03:14:49.465Z,3.40
2018-01-03T03:17:19.202Z,3.40
2018-01-03T03:19:48.910Z,3.40
2018-01-03T03:22:20.232Z,3.40
2018-01-03T03:24:49.949Z,3.40
2018-01-03T03:27:19.732Z,3.40
2018-01-03T03:29:49.252Z,3.40
2018-01-03T03:32:19.007Z,3.40
2018-01-03T03:34:48.714Z,3.40
2018-01-03T03:37:18.471Z,3.40
2018-01-03T03:39:48.982Z,3.40
2018-01-03T03:42:19.497Z,3.50
2018-01-03T03:44:49.231Z,3.40
2018-01-03T03:47:18.973Z,3.50
2018-01-03T03:49:48.868Z,3.50
2018-01-03T03:52:18.379Z,3.50
2018-01-03T03:54:48.118Z,3.50
2018-01-03T03:57:17.896Z,3.60
2018-01-03T03:59:47.626Z,3.60
2018-01-03T04:02:17.369Z,3.60
2018-01-03T04:04:47.116Z,3.60
2018-01-03T04:07:16.838Z,3.60
2018-01-03T04:09:46.844Z,3.60
2018-01-03T04:12:16.627Z,3.70
2018-01-03T04:14:47.340Z,3.70
2018-01-03T04:17:17.065Z,3.70
2018-01-03T04:19:46.788Z,3.80
2018-01-03T04:22:16.666Z,3.80
2018-01-03T04:24:47.228Z,3.80
2018-01-03T04:27:16.943Z,3.80
2018-01-03T04:29:47.508Z,3.80
2018-01-03T04:32:17.232Z,3.80
2018-01-03T04:34:46.986Z,3.90
2018-01-03T04:37:16.734Z,3.80
2018-01-03T04:39:46.452Z,3.80
2018-01-03T04:42:15.906Z,3.80
2018-01-03T04:44:45.651Z,3.80
2018-01-03T04:47:16.165Z,3.80
2018-01-03T04:49:46.660Z,3.80
2018-01-03T04:52:16.385Z,3.80
2018-01-03T04:54:46.095Z,3.80
2018-01-03T04:57:15.865Z,3.70
2018-01-03T04:59:45.569Z,3.80
2018-01-03T05:02:15.435Z,3.70
2018-01-03T05:04:45.177Z,3.70
2018-01-03T05:07:14.892Z,3.70
2018-01-03T05:09:45.416Z,3.70
2018-01-03T05:12:15.883Z,3.70
2018-01-03T05:14:45.646Z,3.70
2018-01-03T05:17:16.132Z,3.70
2018-01-03T05:19:45.872Z,3.70
2018-01-03T05:22:15.604Z,3.70
2018-01-03T05:24:46.107Z,3.70
2018-01-03T05:27:15.813Z,3.70
2018-01-03T05:29:45.554Z,3.70
2018-01-03T05:32:15.333Z,3.70
2018-01-03T05:34:45.077Z,3.70
2018-01-03T05:37:15.605Z,3.70
2018-01-03T05:39:46.082Z,3.70
2018-01-03T05:42:15.556Z,3.70
2018-01-03T05:44:45.355Z,3.70
2018-01-03T05:47:15.606Z,3.70
2018-01-03T05:49:45.402Z,3.70
2018-01-03T05:52:15.154Z,3.70
2018-01-03T05:54:44.890Z,3.70
2018-01-03T05:57:14.599Z,3.70
2018-01-03T05:59:44.334Z,3.70
2018-01-03T06:02:14.068Z,3.60
2018-01-03T06:04:43.819Z,3.60
2018-01-03T06:07:13.565Z,3.60
2018-01-03T06:09:43.034Z,3.60
2018-01-03T06:12:12.772Z,3.60
2018-01-03T06:14:43.282Z,3.60
2018-01-03T06:17:13.021Z,3.60
2018-01-03T06:19:43.543Z,3.60
2018-01-03T06:22:14.060Z,3.60
2018-01-03T06:24:43.801Z,3.60
2018-01-03T06:27:13.541Z,3.60
2018-01-03T06:29:43.301Z,3.60
2018-01-03T06:32:13.842Z,3.60
2018-01-03T06:34:44.309Z,3.60
2018-01-03T06:37:14.064Z,3.60
2018-01-03T06:39:44.215Z,3.70
2018-01-03T06:42:13.960Z,3.70
2018-01-03T06:44:43.693Z,3.70
2018-01-03T06:47:13.455Z,3.70
2018-01-03T06:49:43.154Z,3.70
2018-01-03T06:52:13.171Z,3.70
2018-01-03T06:54:43.625Z,3.70
2018-01-03T06:57:13.377Z,3.70
2018-01-03T06:59:43.141Z,3.70
2018-01-03T07:02:12.895Z,3.80
2018-01-03T07:04:42.352Z,3.80
2018-01-03T07:07:12.101Z,3.80
2018-01-03T07:09:41.846Z,3.70
2018-01-03T07:12:12.353Z,3.80
2018-01-03T07:14:42.106Z,3.80
2018-01-03T07:17:11.850Z,3.80
2018-01-03T07:19:41.609Z,3.80
2018-01-03T07:22:12.125Z,3.80
2018-01-03T07:24:41.897Z,3.80
2018-01-03T07:27:11.633Z,3.80
2018-01-03T07:29:41.374Z,3.90
2018-01-03T07:32:12.605Z,3.90
2018-01-03T07:34:42.233Z,3.90
2018-01-03T07:37:11.975Z,4.00
2018-01-03T07:39:42.497Z,3.90
2018-01-03T07:42:12.977Z,3.90
2018-01-03T07:44:42.747Z,3.90
2018-01-03T07:47:13.232Z,3.90
2018-01-03T07:49:42.981Z,3.90
2018-01-03T07:52:14.082Z,3.90
2018-01-03T07:54:44.326Z,4.00
2018-01-03T07:57:14.070Z,4.00
2018-01-03T07:59:43.839Z,4.00
2018-01-03T08:02:13.743Z,4.00
2018-01-03T08:04:43.504Z,4.00
2018-01-03T08:07:13.973Z,4.00
2018-01-03T08:09:43.732Z,4.00
2018-01-03T08:12:14.233Z,4.10
2018-01-03T08:14:43.980Z,4.00
2018-01-03T08:17:14.450Z,4.10
2018-01-03T08:19:44.193Z,4.00
2018-01-03T08:22:13.892Z,4.10
2018-01-03T08:24:43.684Z,4.10
2018-01-03T08:27:13.386Z,4.20
2018-01-03T08:29:43.141Z,4.20
2018-01-03T08:32:14.349Z,4.10
2018-01-03T08:34:44.114Z,4.10
2018-01-03T08:37:14.614Z,4.20
2018-01-03T08:39:44.357Z,4.10
2018-01-03T08:42:14.836Z,4.20
2018-01-03T08:44:44.636Z,4.10
2018-01-03T08:47:14.351Z,4.20
2018-01-03T08:49:44.086Z,4.20
2018-01-03T08:52:13.451Z,4.20
2018-01-03T08:54:43.184Z,4.30
2018-01-03T08:57:12.896Z,4.30
2018-01-03T08:59:42.637Z,4.40
2018-01-03T09:02:12.339Z,4.40
2018-01-03T09:04:42.101Z,4.40
2018-01-03T09:07:11.829Z,4.50
2018-01-03T09:09:41.570Z,4.50
2018-01-03T09:12:11.327Z,4.50
2018-01-03T09:14:41.033Z,4.60
2018-01-03T09:17:10.801Z,4.60
2018-01-03T09:19:40.526Z,4.60
2018-01-03T09:22:10.335Z,4.60
2018-01-03T09:24:40.073Z,4.70
2018-01-03T09:27:10.586Z,4.80
2018-01-03T09:29:40.310Z,4.80
2018-01-03T09:32:10.830Z,4.80
2018-01-03T09:34:41.315Z,4.80
2018-01-03T09:37:11.053Z,4.80
2018-01-03T09:39:40.801Z,4.80
2018-01-03T09:42:10.584Z,4.90
2018-01-03T09:44:41.238Z,4.90
2018-01-03T09:47:11.761Z,5.00
2018-01-03T09:49:42.213Z,5.00
2018-01-03T09:52:11.968Z,4.90
2018-01-03T09:54:41.733Z,5.00
2018-01-03T09:57:11.450Z,5.00
2018-01-03T09:59:41.195Z,5.00
2018-01-03T10:02:10.907Z,5.00
2018-01-03T10:04:40.686Z,5.10
2018-01-03T10:07:10.389Z,5.10
2018-01-03T10:09:40.132Z,5.10
2018-01-03T10:12:09.845Z,5.20
2018-01-03T10:14:39.578Z,5.20
2018-01-03T10:17:09.289Z,5.20
2018-01-03T10:19:39.038Z,5.30
2018-01-03T10:22:08.752Z,5.30
2018-01-03T10:24:38.505Z,5.30
2018-01-03T10:27:08.219Z,5.40
2018-01-03T10:29:37.971Z,5.40
2018-01-03T10:32:08.441Z,5.40
2018-01-03T10:34:38.220Z,5.40
2018-01-03T10:37:07.933Z,5.40
2018-01-03T10:39:37.688Z,5.50
2018-01-03T10:42:07.444Z,5.50
2018-01-03T10:44:37.962Z,5.60
2018-01-03T10:47:07.700Z,5.60
2018-01-03T10:49:37.405Z,5.60
2018-01-03T10:52:07.139Z,5.70
2018-01-03T10:54:36.889Z,5.70
2018-01-03T10:57:06.582Z,5.80
2018-01-03T10:59:36.349Z,5.80
2018-01-03T11:02:06.062Z,5.90
2018-01-03T11:04:35.797Z,6.00
2018-01-03T11:07:05.525Z,6.10
2018-01-03T11:09:35.301Z,6.20
2018-01-03T11:12:05.033Z,6.20
2018-01-03T11:14:34.800Z,6.30
2018-01-03T11:17:04.943Z,6.40
2018-01-03T11:19:34.735Z,6.40
2018-01-03T11:22:05.206Z,6.50
2018-01-03T11:24:34.957Z,6.50
2018-01-03T11:27:04.680Z,6.50
2018-01-03T11:29:35.228Z,6.50
2018-01-03T11:32:04.692Z,6.50
2018-01-03T11:34:34.697Z,6.60
2018-01-03T11:37:04.410Z,6.70
2018-01-03T11:39:34.156Z,6.80
2018-01-03T11:42:04.649Z,7.10
2018-01-03T11:44:34.411Z,7.10
2018-01-03T11:47:04.130Z,7.20
2018-01-03T11:49:33.894Z,7.30
2018-01-03T11:52:03.613Z,7.40
2018-01-03T11:54:33.351Z,7.70
2018-01-03T11:57:03.072Z,8.10
2018-01-03T11:59:33.064Z,8.50
2018-01-03T12:02:03.537Z,9.60
2018-01-03T12:04:33.273Z,9.60
2018-01-03T12:07:03.002Z,9.60
2018-01-03T12:09:32.755Z,9.20
2018-01-03T12:12:02.495Z,8.90
2018-01-03T12:14:32.214Z,8.70
2018-01-03T12:17:01.973Z,8.50
2018-01-03T12:19:32.460Z,8.10
2018-01-03T12:22:02.231Z,8.00
2018-01-03T12:24:31.961Z,7.70
2018-01-03T12:27:01.771Z,7.00
2018-01-03T12:29:31.549Z,6.50
2018-01-03T12:32:01.302Z,6.50
2018-01-03T12:34:31.066Z,6.80
2018-01-03T12:37:01.566Z,7.30
2018-01-03T12:39:31.565Z,7.30
2018-01-03T12:42:01.325Z,7.50
2018-01-03T12:44:31.039Z,7.60
2018-01-03T12:47:01.554Z,7.60
2018-01-03T12:49:32.054Z,7.70
2018-01-03T12:52:01.820Z,7.70
2018-01-03T12:54:31.209Z,7.90
2018-01-03T12:57:01.730Z,8.10
2018-01-03T12:59:32.226Z,7.70
2018-01-03T13:02:01.975Z,7.70
2018-01-03T13:04:32.457Z,8.20
2018-01-03T13:07:02.226Z,8.20
2018-01-03T13:09:32.029Z,8.50
2018-01-03T13:12:02.518Z,8.30
2018-01-03T13:14:32.320Z,8.30
2018-01-03T13:17:02.025Z,7.90
2018-01-03T13:19:31.770Z,7.80
2018-01-03T13:22:01.249Z,7.80
2018-01-03T13:24:30.966Z,7.80
2018-01-03T13:27:00.725Z,8.10
2018-01-03T13:29:30.489Z,8.30
2018-01-03T13:32:02.417Z,8.20
2018-01-03T13:34:32.153Z,8.10
2018-01-03T13:37:01.863Z,8.20
2018-01-03T13:39:31.615Z,8.30
2018-01-03T13:42:02.162Z,8.40
2018-01-03T13:44:31.606Z,8.40
2018-01-03T13:47:01.352Z,8.40
2018-01-03T13:49:31.857Z,8.50
2018-01-03T13:52:01.604Z,8.40
2018-01-03T13:54:31.334Z,8.60
2018-01-03T13:57:01.077Z,8.60
2018-01-03T13:59:30.644Z,8.50
2018-01-03T14:02:00.090Z,8.60
2018-01-03T14:04:29.853Z,8.30
2018-01-03T14:07:00.330Z,7.90
2018-01-03T14:09:30.077Z,7.90
2018-01-03T14:12:00.578Z,7.90
2018-01-03T14:14:30.325Z,7.80
2018-01-03T14:17:00.043Z,7.90
2018-01-03T14:19:30.373Z,7.70
2018-01-03T14:22:00.173Z,7.70
2018-01-03T14:24:30.637Z,7.50
2018-01-03T14:27:00.388Z,7.50
2018-01-03T14:29:30.102Z,7.40
2018-01-03T14:31:59.850Z,7.30
2018-01-03T14:34:30.314Z,7.30
2018-01-03T14:37:00.095Z,7.30
2018-01-03T14:39:29.856Z,7.30
2018-01-03T14:41:59.585Z,7.20
2018-01-03T14:44:30.111Z,7.20
2018-01-03T14:46:59.837Z,7.20
2018-01-03T14:49:30.370Z,7.20
2018-01-03T14:52:00.858Z,7.20
2018-01-03T14:54:30.626Z,7.20
2018-01-03T14:57:00.346Z,7.20
2018-01-03T14:59:30.153Z,7.20
2018-01-03T15:01:59.876Z,7.10
2018-01-03T15:04:29.633Z,7.10
2018-01-03T15:06:59.354Z,7.00
2018-01-03T15:09:29.101Z,7.00
2018-01-03T15:11:58.865Z,6.90
2018-01-03T15:14:28.568Z,6.80
2018-01-03T15:16:58.311Z,6.70
2018-01-03T15:19:29.130Z,6.60
2018-01-03T15:21:58.876Z,6.60
2018-01-03T15:24:28.626Z,6.50
2018-01-03T15:26:58.337Z,6.50
2018-01-03T15:29:28.143Z,6.40
2018-01-03T15:31:57.869Z,6.30
2018-01-03T15:34:27.611Z,6.10
2018-01-03T15:36:58.129Z,6.00
2018-01-03T15:39:28.658Z,5.90
2018-01-03T15:41:58.398Z,5.90
2018-01-03T15:44:30.048Z,5.90
2018-01-03T15:47:00.569Z,5.80
2018-01-03T15:49:31.025Z,5.70
2018-01-03T15:52:00.772Z,5.70
2018-01-03T15:54:30.501Z,5.70
2018-01-03T15:57:00.251Z,5.70
2018-01-03T15:59:30.169Z,5.70
2018-01-03T16:01:59.941Z,5.60
2018-01-03T16:04:29.681Z,5.70
2018-01-03T16:06:59.421Z,5.70
2018-01-03T16:09:29.195Z,5.70
2018-01-03T16:12:00.052Z,5.70
2018-01-03T16:14:29.824Z,5.60
2018-01-03T16:16:59.536Z,5.70
2018-01-03T16:19:29.299Z,5.70
2018-01-03T16:21:59.048Z,5.70
2018-01-03T16:24:28.787Z,5.70
2018-01-03T16:26:58.985Z,5.80
2018-01-03T16:29:29.047Z,5.80
2018-01-03T16:31:58.757Z,5.80
2018-01-03T16:34:28.525Z,5.90
2018-01-03T16:36:58.268Z,5.90
2018-01-03T16:39:28.772Z,6.00
2018-01-03T16:41:59.290Z,6.00
2018-01-03T16:44:29.493Z,6.10
2018-01-03T16:46:59.458Z,6.10
2018-01-03T16:49:29.997Z,6.20
2018-01-03T16:52:05.257Z,6.20
2018-01-03T16:54:35.050Z,6.20
2018-01-03T16:57:04.823Z,6.10
2018-01-03T16:59:34.570Z,6.20
2018-01-03T17:02:03.949Z,6.20
2018-01-03T17:04:33.714Z,6.10
2018-01-03T17:07:03.469Z,6.10
2018-01-03T17:09:33.202Z,6.10
2018-01-03T17:12:02.966Z,6.10
2018-01-03T17:14:32.685Z,6.00
2018-01-03T17:17:02.436Z,6.00
2018-01-03T17:19:33.071Z,5.80
2018-01-03T17:22:03.585Z,5.80
2018-01-03T17:24:33.069Z,5.80
2018-01-03T17:27:02.811Z,5.70
2018-01-03T17:29:33.482Z,5.70
2018-01-03T17:32:03.297Z,5.70
2018-01-03T17:34:33.269Z,5.70
2018-01-03T17:37:04.030Z,5.70
2018-01-03T17:39:33.827Z,5.70
2018-01-03T17:42:03.427Z,5.70
2018-01-03T17:44:34.211Z,5.80
2018-01-03T17:47:04.077Z,5.70
2018-01-03T17:49:34.371Z,5.80
2018-01-03T17:52:03.795Z,5.70
2018-01-03T17:54:33.533Z,5.80
2018-01-03T17:57:03.087Z,5.80
2018-01-03T17:59:32.838Z,5.80
2018-01-03T18:02:02.581Z,5.80
2018-01-03T18:04:32.310Z,5.70
2018-01-03T18:07:02.056Z,5.70
2018-01-03T18:09:31.788Z,5.70
2018-01-03T18:12:02.277Z,5.70
2018-01-03T18:14:32.787Z,5.70
2018-01-03T18:17:02.501Z,5.70
2018-01-03T18:19:32.386Z,5.70
2018-01-03T18:22:02.149Z,5.70
2018-01-03T18:24:31.910Z,5.80
2018-01-03T18:27:01.674Z,5.90
2018-01-03T18:29:31.420Z,5.90
2018-01-03T18:32:01.130Z,5.90
2018-01-03T18:34:30.894Z,5.90
2018-01-03T18:37:00.638Z,5.90
2018-01-03T18:39:31.158Z,5.90
2018-01-03T18:42:00.870Z,5.90
2018-01-03T18:44:31.406Z,5.80
2018-01-03T18:47:01.881Z,5.90
2018-01-03T18:49:31.621Z,5.80
2018-01-03T18:52:01.365Z,5.90
2018-01-03T18:54:31.144Z,5.90
2018-01-03T18:57:00.950Z,5.90
2018-01-03T18:59:30.697Z,5.90
2018-01-03T19:02:01.195Z,5.90
2018-01-03T19:04:30.945Z,5.90
2018-01-03T19:07:00.697Z,6.00
2018-01-03T19:09:30.438Z,6.00
2018-01-03T19:12:00.158Z,6.00
2018-01-03T19:14:30.670Z,6.00
2018-01-03T19:17:00.407Z,6.00
2018-01-03T19:19:30.958Z,6.00
2018-01-03T19:22:00.662Z,6.00
2018-01-03T19:24:30.418Z,6.00
2018-01-03T19:27:00.141Z,6.00
2018-01-03T19:29:30.375Z,6.00
2018-01-03T19:32:00.094Z,6.00
2018-01-03T19:34:30.597Z,6.00
2018-01-03T19:37:00.168Z,6.00
2018-01-03T19:39:29.878Z,6.00
2018-01-03T19:41:59.629Z,6.00
2018-01-03T19:44:29.343Z,5.90
2018-01-03T19:46:59.094Z,6.00
2018-01-03T19:49:28.797Z,6.00
2018-01-03T19:51:59.322Z,6.00
2018-01-03T19:54:29.158Z,6.00
2018-01-03T19:56:58.971Z,6.00
2018-01-03T19:59:28.695Z,6.00
2018-01-03T20:01:58.470Z,6.00
2018-01-03T20:04:28.961Z,6.00
2018-01-03T20:06:58.712Z,6.00
2018-01-03T20:09:28.655Z,6.00
2018-01-03T20:11:58.406Z,6.10
2018-01-03T20:14:28.130Z,6.10
2018-01-03T20:16:57.878Z,6.10
2018-01-03T20:19:27.661Z,6.10
2018-01-03T20:21:57.373Z,6.10
2018-01-03T20:24:27.965Z,6.20
2018-01-03T20:26:57.745Z,6.20
2018-01-03T20:29:27.484Z,6.20
2018-01-03T20:31:57.262Z,6.20
2018-01-03T20:34:26.982Z,6.30
2018-01-03T20:36:56.737Z,6.30
2018-01-03T20:39:26.492Z,6.30
2018-01-03T20:41:56.992Z,6.30
2018-01-03T20:44:26.934Z,6.30
2018-01-03T20:47:00.381Z,6.30
2018-01-03T20:49:30.827Z,6.30
2018-01-03T20:52:00.601Z,6.20
2018-01-03T20:54:30.328Z,6.20
2018-01-03T20:57:00.087Z,6.20
2018-01-03T20:59:30.644Z,6.10
2018-01-03T21:02:00.226Z,6.10
2018-01-03T21:04:30.868Z,6.10
2018-01-03T21:07:00.627Z,6.10
2018-01-03T21:09:30.343Z,6.00
2018-01-03T21:12:00.097Z,6.10
2018-01-03T21:14:29.841Z,6.10
2018-01-03T21:16:59.648Z,6.00
2018-01-03T21:19:29.395Z,6.00
2018-01-03T21:21:59.130Z,6.10
2018-01-03T21:24:29.677Z,6.10
2018-01-03T21:27:00.146Z,6.10
2018-01-03T21:29:29.908Z,6.10
2018-01-03T21:32:00.437Z,6.20
2018-01-03T21:34:30.939Z,6.20
2018-01-03T21:37:00.747Z,6.20
2018-01-03T21:39:30.497Z,6.20
2018-01-03T21:42:01.021Z,6.30
2018-01-03T21:44:31.554Z,6.30
2018-01-03T21:47:01.266Z,6.30
2018-01-03T21:49:31.778Z,6.40
2018-01-03T21:52:02.294Z,6.40
2018-01-03T21:54:32.732Z,6.40
2018-01-03T21:57:03.258Z,6.40
2018-01-03T21:59:33.023Z,6.40
2018-01-03T22:02:03.072Z,6.40
2018-01-03T22:04:32.877Z,6.50
2018-01-03T22:07:02.799Z,6.50
2018-01-03T22:09:32.494Z,6.50
2018-01-03T22:12:02.241Z,6.60
2018-01-03T22:14:32.750Z,6.60
2018-01-03T22:17:02.503Z,6.60
2018-01-03T22:19:32.253Z,6.60
2018-01-03T22:22:01.968Z,6.60
2018-01-03T22:24:31.737Z,6.80
2018-01-03T22:27:02.203Z,6.80
2018-01-03T22:29:31.950Z,6.80
2018-01-03T22:32:01.678Z,6.80
2018-01-03T22:34:31.149Z,6.90
2018-01-03T22:37:00.892Z,6.90
2018-01-03T22:39:31.390Z,6.90
2018-01-03T22:42:01.188Z,6.90
2018-01-03T22:44:31.112Z,7.00
2018-01-03T22:47:01.691Z,7.00
2018-01-03T22:49:32.210Z,7.00
2018-01-03T22:52:02.724Z,7.00
2018-01-03T22:54:32.455Z,7.00
2018-01-03T22:57:02.970Z,7.10
2018-01-03T22:59:33.462Z,7.10
2018-01-03T23:02:03.225Z,7.10
2018-01-03T23:04:33.760Z,7.10
2018-01-03T23:07:03.946Z,7.10
2018-01-03T23:09:33.673Z,7.10
2018-01-03T23:12:03.462Z,7.10
2018-01-03T23:14:33.173Z,7.10
2018-01-03T23:17:02.924Z,7.20
2018-01-03T23:19:33.294Z,7.10
2018-01-03T23:22:03.042Z,7.10
2018-01-03T23:24:33.565Z,7.10
2018-01-03T23:27:03.282Z,7.10
2018-01-03T23:29:33.993Z,7.20
2018-01-03T23:32:03.864Z,7.20
2018-01-03T23:34:33.655Z,7.20
2018-01-03T23:37:03.425Z,7.30
2018-01-03T23:39:33.150Z,7.30
2018-01-03T23:42:03.022Z,7.40
2018-01-03T23:44:33.826Z,7.40
2018-01-03T23:47:04.363Z,7.50
2018-01-03T23:49:34.829Z,7.50
2018-01-03T23:52:04.577Z,7.50
2018-01-03T23:54:34.350Z,7.50
2018-01-03T23:57:03.722Z,7.50
2018-01-03T23:59:33.490Z,7.60
